sensor_id;sensor_type;location;lat;lon;timestamp;P1;durP1;ratioP1;P2;durP2;ratioP2
44248;SDS011;29923;48.718;9.272;2023-12-20T00:01:17;1.58;;;0.95;;
44248;SDS011;29923;48.718;9.272;2023-12-20T00:03:43;1.70;;;1.00;;
44248;SDS011;29923;48.718;9.272;2023-12-20T00:06:08;2.20;;;1.08;;
44248;SDS011;29923;48.718;9.272;2023-12-20T00:08:34;1.35;;;0.70;;
44248;SDS011;29923;48.718;9.272;2023-12-20T00:10:59;1.30;;;0.95;;
44248;SDS011;29923;48.718;9.272;2023-12-20T00:13:25;1.02;;;0.85;;
44248;SDS011;29923;48.718;9.272;2023-12-20T00:15:50;1.48;;;0.80;;
44248;SDS011;29923;48.718;9.272;2023-12-20T00:18:15;0.82;;;0.70;;
44248;SDS011;29923;48.718;9.272;2023-12-20T00:20:41;1.00;;;0.90;;
44248;SDS011;29923;48.718;9.272;2023-12-20T00:23:06;1.10;;;1.00;;
44248;SDS011;29923;48.718;9.272;2023-12-20T00:25:33;1.30;;;0.98;;
44248;SDS011;29923;48.718;9.272;2023-12-20T00:27:58;0.60;;;0.60;;
44248;SDS011;29923;48.718;9.272;2023-12-20T00:30:24;2.55;;;1.10;;
44248;SDS011;29923;48.718;9.272;2023-12-20T00:32:49;0.73;;;0.70;;
44248;SDS011;29923;48.718;9.272;2023-12-20T00:35:15;1.17;;;0.98;;
44248;SDS011;29923;48.718;9.272;2023-12-20T00:37:41;0.73;;;0.73;;
44248;SDS011;29923;48.718;9.272;2023-12-20T00:40:07;2.97;;;1.02;;
44248;SDS011;29923;48.718;9.272;2023-12-20T00:42:33;1.10;;;0.82;;
44248;SDS011;29923;48.718;9.272;2023-12-20T00:44:58;1.48;;;0.80;;
44248;SDS011;29923;48.718;9.272;2023-12-20T00:47:24;1.83;;;0.60;;
44248;SDS011;29923;48.718;9.272;2023-12-20T00:49:50;0.80;;;0.70;;
44248;SDS011;29923;48.718;9.272;2023-12-20T00:52:15;1.58;;;0.80;;
44248;SDS011;29923;48.718;9.272;2023-12-20T00:54:42;2.15;;;0.98;;
44248;SDS011;29923;48.718;9.272;2023-12-20T00:57:07;0.93;;;0.73;;
44248;SDS011;29923;48.718;9.272;2023-12-20T00:59:32;0.80;;;0.60;;
44248;SDS011;29923;48.718;9.272;2023-12-20T01:01:58;0.98;;;0.70;;
44248;SDS011;29923;48.718;9.272;2023-12-20T01:04:23;1.00;;;0.65;;
44248;SDS011;29923;48.718;9.272;2023-12-20T01:06:48;1.48;;;0.77;;
44248;SDS011;29923;48.718;9.272;2023-12-20T01:09:14;0.93;;;0.70;;
44248;SDS011;29923;48.718;9.272;2023-12-20T01:11:39;1.77;;;0.60;;
44248;SDS011;29923;48.718;9.272;2023-12-20T01:14:04;0.70;;;0.60;;
44248;SDS011;29923;48.718;9.272;2023-12-20T01:16:30;1.20;;;0.75;;
44248;SDS011;29923;48.718;9.272;2023-12-20T01:18:55;1.17;;;0.73;;
44248;SDS011;29923;48.718;9.272;2023-12-20T01:21:21;1.08;;;0.73;;
44248;SDS011;29923;48.718;9.272;2023-12-20T01:23:46;0.90;;;0.63;;
44248;SDS011;29923;48.718;9.272;2023-12-20T01:26:12;1.10;;;0.75;;
44248;SDS011;29923;48.718;9.272;2023-12-20T01:28:37;1.00;;;0.60;;
44248;SDS011;29923;48.718;9.272;2023-12-20T01:31:03;0.80;;;0.60;;
44248;SDS011;29923;48.718;9.272;2023-12-20T01:33:29;0.55;;;0.55;;
44248;SDS011;29923;48.718;9.272;2023-12-20T01:35:54;1.25;;;0.70;;
44248;SDS011;29923;48.718;9.272;2023-12-20T01:38:19;0.82;;;0.68;;
44248;SDS011;29923;48.718;9.272;2023-12-20T01:40:45;1.88;;;0.73;;
44248;SDS011;29923;48.718;9.272;2023-12-20T01:43:10;1.73;;;0.80;;
44248;SDS011;29923;48.718;9.272;2023-12-20T01:45:37;2.95;;;0.70;;
44248;SDS011;29923;48.718;9.272;2023-12-20T01:48:03;1.83;;;0.80;;
44248;SDS011;29923;48.718;9.272;2023-12-20T01:50:29;2.42;;;0.65;;
44248;SDS011;29923;48.718;9.272;2023-12-20T01:52:55;2.35;;;0.73;;
44248;SDS011;29923;48.718;9.272;2023-12-20T01:55:24;7.30;;;1.00;;
44248;SDS011;29923;48.718;9.272;2023-12-20T01:57:50;3.28;;;0.90;;
44248;SDS011;29923;48.718;9.272;2023-12-20T02:00:16;1.13;;;0.85;;
44248;SDS011;29923;48.718;9.272;2023-12-20T02:02:41;0.85;;;0.70;;
44248;SDS011;29923;48.718;9.272;2023-12-20T02:05:08;0.40;;;0.40;;
44248;SDS011;29923;48.718;9.272;2023-12-20T02:07:33;1.38;;;0.68;;
44248;SDS011;29923;48.718;9.272;2023-12-20T02:10:02;4.45;;;0.80;;
44248;SDS011;29923;48.718;9.272;2023-12-20T02:12:29;0.68;;;0.57;;
44248;SDS011;29923;48.718;9.272;2023-12-20T02:14:54;1.30;;;0.70;;
44248;SDS011;29923;48.718;9.272;2023-12-20T02:17:20;1.88;;;0.73;;
44248;SDS011;29923;48.718;9.272;2023-12-20T02:19:45;1.00;;;0.70;;
44248;SDS011;29923;48.718;9.272;2023-12-20T02:22:11;3.83;;;1.60;;
44248;SDS011;29923;48.718;9.272;2023-12-20T02:24:36;1.10;;;0.80;;
44248;SDS011;29923;48.718;9.272;2023-12-20T02:27:02;0.60;;;0.60;;
44248;SDS011;29923;48.718;9.272;2023-12-20T02:29:28;1.02;;;0.90;;
44248;SDS011;29923;48.718;9.272;2023-12-20T02:31:53;1.10;;;0.90;;
44248;SDS011;29923;48.718;9.272;2023-12-20T02:34:18;2.00;;;0.70;;
44248;SDS011;29923;48.718;9.272;2023-12-20T02:36:44;1.60;;;0.90;;
44248;SDS011;29923;48.718;9.272;2023-12-20T02:39:09;1.98;;;1.10;;
44248;SDS011;29923;48.718;9.272;2023-12-20T02:41:34;2.95;;;0.90;;
44248;SDS011;29923;48.718;9.272;2023-12-20T02:44:01;1.40;;;0.88;;
44248;SDS011;29923;48.718;9.272;2023-12-20T02:46:27;1.20;;;0.77;;
44248;SDS011;29923;48.718;9.272;2023-12-20T02:48:52;0.93;;;0.80;;
44248;SDS011;29923;48.718;9.272;2023-12-20T02:51:17;0.90;;;0.73;;
44248;SDS011;29923;48.718;9.272;2023-12-20T02:53:43;0.85;;;0.70;;
44248;SDS011;29923;48.718;9.272;2023-12-20T02:56:08;4.53;;;0.90;;
44248;SDS011;29923;48.718;9.272;2023-12-20T02:58:33;1.58;;;0.70;;
44248;SDS011;29923;48.718;9.272;2023-12-20T03:00:59;0.77;;;0.73;;
44248;SDS011;29923;48.718;9.272;2023-12-20T03:03:24;0.80;;;0.70;;
44248;SDS011;29923;48.718;9.272;2023-12-20T03:05:50;1.50;;;0.88;;
44248;SDS011;29923;48.718;9.272;2023-12-20T03:08:15;1.00;;;0.65;;
44248;SDS011;29923;48.718;9.272;2023-12-20T03:10:40;1.42;;;0.70;;
44248;SDS011;29923;48.718;9.272;2023-12-20T03:13:06;1.88;;;0.70;;
44248;SDS011;29923;48.718;9.272;2023-12-20T03:15:31;1.48;;;0.70;;
44248;SDS011;29923;48.718;9.272;2023-12-20T03:17:57;0.82;;;0.63;;
44248;SDS011;29923;48.718;9.272;2023-12-20T03:20:24;1.80;;;0.60;;
44248;SDS011;29923;48.718;9.272;2023-12-20T03:22:50;1.05;;;0.68;;
44248;SDS011;29923;48.718;9.272;2023-12-20T03:25:16;0.52;;;0.52;;
44248;SDS011;29923;48.718;9.272;2023-12-20T03:27:41;0.93;;;0.80;;
44248;SDS011;29923;48.718;9.272;2023-12-20T03:30:07;0.70;;;0.50;;
44248;SDS011;29923;48.718;9.272;2023-12-20T03:32:32;0.75;;;0.47;;
44248;SDS011;29923;48.718;9.272;2023-12-20T03:34:58;0.80;;;0.80;;
44248;SDS011;29923;48.718;9.272;2023-12-20T03:37:23;0.95;;;0.80;;
44248;SDS011;29923;48.718;9.272;2023-12-20T03:39:48;0.50;;;0.50;;
44248;SDS011;29923;48.718;9.272;2023-12-20T03:42:14;1.02;;;0.57;;
44248;SDS011;29923;48.718;9.272;2023-12-20T03:44:39;2.47;;;0.80;;
44248;SDS011;29923;48.718;9.272;2023-12-20T03:47:07;0.73;;;0.60;;
44248;SDS011;29923;48.718;9.272;2023-12-20T03:49:32;1.75;;;0.60;;
44248;SDS011;29923;48.718;9.272;2023-12-20T03:51:58;2.15;;;0.52;;
44248;SDS011;29923;48.718;9.272;2023-12-20T03:54:23;1.77;;;0.70;;
44248;SDS011;29923;48.718;9.272;2023-12-20T03:56:49;1.45;;;0.50;;
44248;SDS011;29923;48.718;9.272;2023-12-20T03:59:14;1.38;;;0.50;;
44248;SDS011;29923;48.718;9.272;2023-12-20T04:01:43;1.50;;;0.60;;
44248;SDS011;29923;48.718;9.272;2023-12-20T04:04:09;1.23;;;0.70;;
44248;SDS011;29923;48.718;9.272;2023-12-20T04:06:35;1.35;;;0.60;;
44248;SDS011;29923;48.718;9.272;2023-12-20T04:09:00;0.60;;;0.60;;
44248;SDS011;29923;48.718;9.272;2023-12-20T04:11:25;1.02;;;0.52;;
44248;SDS011;29923;48.718;9.272;2023-12-20T04:13:51;0.73;;;0.60;;
44248;SDS011;29923;48.718;9.272;2023-12-20T04:16:16;0.75;;;0.40;;
44248;SDS011;29923;48.718;9.272;2023-12-20T04:18:41;0.30;;;0.30;;
44248;SDS011;29923;48.718;9.272;2023-12-20T04:21:07;1.40;;;0.45;;
44248;SDS011;29923;48.718;9.272;2023-12-20T04:23:35;0.77;;;0.40;;
44248;SDS011;29923;48.718;9.272;2023-12-20T04:26:00;0.88;;;0.47;;
44248;SDS011;29923;48.718;9.272;2023-12-20T04:28:26;0.95;;;0.40;;
44248;SDS011;29923;48.718;9.272;2023-12-20T04:30:51;1.38;;;0.38;;
44248;SDS011;29923;48.718;9.272;2023-12-20T04:33:16;0.52;;;0.50;;
44248;SDS011;29923;48.718;9.272;2023-12-20T04:35:42;1.10;;;0.50;;
44248;SDS011;29923;48.718;9.272;2023-12-20T04:38:08;1.02;;;0.90;;
44248;SDS011;29923;48.718;9.272;2023-12-20T04:40:34;1.50;;;0.57;;
44248;SDS011;29923;48.718;9.272;2023-12-20T04:42:59;3.22;;;0.60;;
44248;SDS011;29923;48.718;9.272;2023-12-20T04:45:24;0.98;;;0.60;;
44248;SDS011;29923;48.718;9.272;2023-12-20T04:47:50;1.15;;;0.50;;
44248;SDS011;29923;48.718;9.272;2023-12-20T04:50:16;1.08;;;0.30;;
44248;SDS011;29923;48.718;9.272;2023-12-20T04:52:41;0.40;;;0.40;;
44248;SDS011;29923;48.718;9.272;2023-12-20T04:55:07;0.80;;;0.40;;
44248;SDS011;29923;48.718;9.272;2023-12-20T04:57:33;4.05;;;0.60;;
44248;SDS011;29923;48.718;9.272;2023-12-20T04:59:59;0.75;;;0.40;;
44248;SDS011;29923;48.718;9.272;2023-12-20T05:02:24;1.33;;;0.60;;
44248;SDS011;29923;48.718;9.272;2023-12-20T05:04:50;9.55;;;4.65;;
44248;SDS011;29923;48.718;9.272;2023-12-20T05:07:15;10.43;;;5.18;;
44248;SDS011;29923;48.718;9.272;2023-12-20T05:09:40;0.40;;;0.40;;
44248;SDS011;29923;48.718;9.272;2023-12-20T05:12:06;1.20;;;0.40;;
44248;SDS011;29923;48.718;9.272;2023-12-20T05:14:32;0.50;;;0.30;;
44248;SDS011;29923;48.718;9.272;2023-12-20T05:16:57;0.73;;;0.47;;
44248;SDS011;29923;48.718;9.272;2023-12-20T05:19:23;3.25;;;0.50;;
44248;SDS011;29923;48.718;9.272;2023-12-20T05:21:49;0.75;;;0.30;;
44248;SDS011;29923;48.718;9.272;2023-12-20T05:24:14;0.43;;;0.40;;
44248;SDS011;29923;48.718;9.272;2023-12-20T05:26:40;5.20;;;0.60;;
44248;SDS011;29923;48.718;9.272;2023-12-20T05:29:05;2.50;;;0.50;;
44248;SDS011;29923;48.718;9.272;2023-12-20T05:31:31;4.00;;;0.57;;
44248;SDS011;29923;48.718;9.272;2023-12-20T05:33:56;1.15;;;0.40;;
44248;SDS011;29923;48.718;9.272;2023-12-20T05:36:22;0.90;;;0.40;;
44248;SDS011;29923;48.718;9.272;2023-12-20T05:38:47;0.90;;;0.50;;
44248;SDS011;29923;48.718;9.272;2023-12-20T05:41:13;1.08;;;0.40;;
44248;SDS011;29923;48.718;9.272;2023-12-20T05:43:38;1.75;;;0.40;;
44248;SDS011;29923;48.718;9.272;2023-12-20T05:46:04;0.57;;;0.40;;
44248;SDS011;29923;48.718;9.272;2023-12-20T05:48:29;2.45;;;0.32;;
44248;SDS011;29923;48.718;9.272;2023-12-20T05:50:54;0.20;;;0.20;;
44248;SDS011;29923;48.718;9.272;2023-12-20T05:53:20;0.50;;;0.43;;
44248;SDS011;29923;48.718;9.272;2023-12-20T05:55:45;0.63;;;0.35;;
44248;SDS011;29923;48.718;9.272;2023-12-20T05:58:10;0.38;;;0.30;;
44248;SDS011;29923;48.718;9.272;2023-12-20T06:00:36;2.60;;;0.30;;
44248;SDS011;29923;48.718;9.272;2023-12-20T06:03:01;0.85;;;0.30;;
44248;SDS011;29923;48.718;9.272;2023-12-20T06:05:27;0.45;;;0.38;;
44248;SDS011;29923;48.718;9.272;2023-12-20T06:07:52;0.88;;;0.50;;
44248;SDS011;29923;48.718;9.272;2023-12-20T06:10:17;1.83;;;1.02;;
44248;SDS011;29923;48.718;9.272;2023-12-20T06:12:43;3.58;;;0.65;;
44248;SDS011;29923;48.718;9.272;2023-12-20T06:15:08;1.50;;;0.47;;
44248;SDS011;29923;48.718;9.272;2023-12-20T06:17:34;1.33;;;0.43;;
44248;SDS011;29923;48.718;9.272;2023-12-20T06:20:00;0.30;;;0.30;;
44248;SDS011;29923;48.718;9.272;2023-12-20T06:22:25;4.20;;;0.40;;
44248;SDS011;29923;48.718;9.272;2023-12-20T06:24:51;1.05;;;0.40;;
44248;SDS011;29923;48.718;9.272;2023-12-20T06:27:16;3.13;;;0.30;;
44248;SDS011;29923;48.718;9.272;2023-12-20T06:29:42;2.78;;;0.40;;
44248;SDS011;29923;48.718;9.272;2023-12-20T06:32:09;2.47;;;0.40;;
44248;SDS011;29923;48.718;9.272;2023-12-20T06:34:34;4.95;;;0.50;;
44248;SDS011;29923;48.718;9.272;2023-12-20T06:37:00;1.35;;;0.50;;
44248;SDS011;29923;48.718;9.272;2023-12-20T06:39:25;4.30;;;0.60;;
44248;SDS011;29923;48.718;9.272;2023-12-20T06:41:51;3.70;;;0.80;;
44248;SDS011;29923;48.718;9.272;2023-12-20T06:44:16;1.70;;;0.98;;
44248;SDS011;29923;48.718;9.272;2023-12-20T06:46:41;1.30;;;0.85;;
44248;SDS011;29923;48.718;9.272;2023-12-20T06:49:07;2.17;;;0.98;;
44248;SDS011;29923;48.718;9.272;2023-12-20T06:51:32;1.20;;;1.00;;
44248;SDS011;29923;48.718;9.272;2023-12-20T06:53:58;20.65;;;10.85;;
44248;SDS011;29923;48.718;9.272;2023-12-20T06:56:25;19.73;;;15.85;;
44248;SDS011;29923;48.718;9.272;2023-12-20T06:58:50;5.63;;;1.20;;
44248;SDS011;29923;48.718;9.272;2023-12-20T07:01:15;1.45;;;1.10;;
44248;SDS011;29923;48.718;9.272;2023-12-20T07:03:41;1.92;;;1.00;;
44248;SDS011;29923;48.718;9.272;2023-12-20T07:06:07;3.97;;;0.88;;
44248;SDS011;29923;48.718;9.272;2023-12-20T07:08:32;1.13;;;0.90;;
44248;SDS011;29923;48.718;9.272;2023-12-20T07:10:58;2.10;;;1.00;;
44248;SDS011;29923;48.718;9.272;2023-12-20T07:13:23;5.50;;;1.00;;
44248;SDS011;29923;48.718;9.272;2023-12-20T07:15:48;4.68;;;1.20;;
44248;SDS011;29923;48.718;9.272;2023-12-20T07:18:14;3.05;;;1.17;;
44248;SDS011;29923;48.718;9.272;2023-12-20T07:20:39;2.70;;;1.15;;
44248;SDS011;29923;48.718;9.272;2023-12-20T07:23:04;6.00;;;1.20;;
44248;SDS011;29923;48.718;9.272;2023-12-20T07:25:30;2.47;;;1.00;;
44248;SDS011;29923;48.718;9.272;2023-12-20T07:27:57;1.70;;;1.00;;
44248;SDS011;29923;48.718;9.272;2023-12-20T07:30:23;1.52;;;0.90;;
44248;SDS011;29923;48.718;9.272;2023-12-20T07:32:48;7.78;;;0.93;;
44248;SDS011;29923;48.718;9.272;2023-12-20T07:35:15;6.68;;;1.10;;
44248;SDS011;29923;48.718;9.272;2023-12-20T07:37:40;3.72;;;0.80;;
44248;SDS011;29923;48.718;9.272;2023-12-20T07:40:06;1.15;;;0.93;;
44248;SDS011;29923;48.718;9.272;2023-12-20T07:42:32;5.60;;;1.48;;
44248;SDS011;29923;48.718;9.272;2023-12-20T07:44:58;7.20;;;4.80;;
44248;SDS011;29923;48.718;9.272;2023-12-20T07:47:23;12.77;;;8.45;;
44248;SDS011;29923;48.718;9.272;2023-12-20T07:49:50;0.93;;;0.80;;
44248;SDS011;29923;48.718;9.272;2023-12-20T07:52:16;2.08;;;1.05;;
44248;SDS011;29923;48.718;9.272;2023-12-20T07:54:44;1.35;;;1.05;;
44248;SDS011;29923;48.718;9.272;2023-12-20T07:57:10;3.08;;;1.25;;
44248;SDS011;29923;48.718;9.272;2023-12-20T07:59:36;1.88;;;1.15;;
44248;SDS011;29923;48.718;9.272;2023-12-20T08:02:02;11.13;;;1.52;;
44248;SDS011;29923;48.718;9.272;2023-12-20T08:04:27;14.25;;;10.30;;
44248;SDS011;29923;48.718;9.272;2023-12-20T08:06:52;5.78;;;3.88;;
44248;SDS011;29923;48.718;9.272;2023-12-20T08:09:18;3.38;;;1.80;;
44248;SDS011;29923;48.718;9.272;2023-12-20T08:11:45;4.80;;;1.60;;
44248;SDS011;29923;48.718;9.272;2023-12-20T08:14:11;2.45;;;1.48;;
44248;SDS011;29923;48.718;9.272;2023-12-20T08:16:36;2.70;;;1.75;;
44248;SDS011;29923;48.718;9.272;2023-12-20T08:19:01;3.28;;;1.90;;
44248;SDS011;29923;48.718;9.272;2023-12-20T08:21:27;6.28;;;2.88;;
44248;SDS011;29923;48.718;9.272;2023-12-20T08:23:52;4.82;;;2.45;;
44248;SDS011;29923;48.718;9.272;2023-12-20T08:26:20;2.85;;;2.22;;
44248;SDS011;29923;48.718;9.272;2023-12-20T08:28:47;4.45;;;2.45;;
44248;SDS011;29923;48.718;9.272;2023-12-20T08:31:13;3.25;;;2.00;;
44248;SDS011;29923;48.718;9.272;2023-12-20T08:33:40;4.13;;;2.35;;
44248;SDS011;29923;48.718;9.272;2023-12-20T08:36:06;5.25;;;3.10;;
44248;SDS011;29923;48.718;9.272;2023-12-20T08:38:31;3.35;;;2.35;;
44248;SDS011;29923;48.718;9.272;2023-12-20T08:40:57;3.22;;;2.38;;
44248;SDS011;29923;48.718;9.272;2023-12-20T08:43:23;2.85;;;2.40;;
44248;SDS011;29923;48.718;9.272;2023-12-20T08:45:48;5.45;;;2.40;;
44248;SDS011;29923;48.718;9.272;2023-12-20T08:48:13;5.07;;;2.10;;
44248;SDS011;29923;48.718;9.272;2023-12-20T08:50:39;3.22;;;2.70;;
44248;SDS011;29923;48.718;9.272;2023-12-20T08:53:04;3.08;;;2.20;;
44248;SDS011;29923;48.718;9.272;2023-12-20T08:55:29;4.70;;;1.98;;
44248;SDS011;29923;48.718;9.272;2023-12-20T08:57:56;4.47;;;1.85;;
44248;SDS011;29923;48.718;9.272;2023-12-20T09:00:21;3.05;;;1.88;;
44248;SDS011;29923;48.718;9.272;2023-12-20T09:02:49;4.40;;;2.53;;
44248;SDS011;29923;48.718;9.272;2023-12-20T09:05:14;5.07;;;2.22;;
44248;SDS011;29923;48.718;9.272;2023-12-20T09:07:40;4.75;;;2.60;;
44248;SDS011;29923;48.718;9.272;2023-12-20T09:10:05;3.40;;;2.25;;
44248;SDS011;29923;48.718;9.272;2023-12-20T09:12:31;5.60;;;2.53;;
44248;SDS011;29923;48.718;9.272;2023-12-20T09:14:56;3.67;;;1.70;;
44248;SDS011;29923;48.718;9.272;2023-12-20T09:17:22;3.55;;;1.50;;
44248;SDS011;29923;48.718;9.272;2023-12-20T09:19:50;4.60;;;2.00;;
44248;SDS011;29923;48.718;9.272;2023-12-20T09:22:17;4.25;;;1.60;;
44248;SDS011;29923;48.718;9.272;2023-12-20T09:24:43;4.70;;;2.40;;
44248;SDS011;29923;48.718;9.272;2023-12-20T09:27:08;4.63;;;1.80;;
44248;SDS011;29923;48.718;9.272;2023-12-20T09:29:33;4.40;;;1.98;;
44248;SDS011;29923;48.718;9.272;2023-12-20T09:31:59;4.57;;;1.98;;
44248;SDS011;29923;48.718;9.272;2023-12-20T09:34:24;2.95;;;1.30;;
44248;SDS011;29923;48.718;9.272;2023-12-20T09:36:50;5.15;;;1.83;;
44248;SDS011;29923;48.718;9.272;2023-12-20T09:39:17;3.72;;;1.75;;
44248;SDS011;29923;48.718;9.272;2023-12-20T09:41:46;6.15;;;2.13;;
44248;SDS011;29923;48.718;9.272;2023-12-20T09:44:21;2.63;;;1.67;;
44248;SDS011;29923;48.718;9.272;2023-12-20T09:46:48;8.57;;;1.65;;
44248;SDS011;29923;48.718;9.272;2023-12-20T09:49:14;10.07;;;2.08;;
44248;SDS011;29923;48.718;9.272;2023-12-20T09:51:44;11.50;;;1.95;;
44248;SDS011;29923;48.718;9.272;2023-12-20T09:54:11;6.15;;;2.28;;
44248;SDS011;29923;48.718;9.272;2023-12-20T09:56:40;2.55;;;1.60;;
44248;SDS011;29923;48.718;9.272;2023-12-20T09:59:06;7.72;;;1.77;;
44248;SDS011;29923;48.718;9.272;2023-12-20T10:01:31;3.08;;;1.75;;
44248;SDS011;29923;48.718;9.272;2023-12-20T10:03:56;3.80;;;1.40;;
44248;SDS011;29923;48.718;9.272;2023-12-20T10:06:23;3.47;;;1.70;;
44248;SDS011;29923;48.718;9.272;2023-12-20T10:08:49;4.93;;;1.20;;
44248;SDS011;29923;48.718;9.272;2023-12-20T10:11:14;2.65;;;1.23;;
44248;SDS011;29923;48.718;9.272;2023-12-20T10:13:40;6.93;;;1.70;;
44248;SDS011;29923;48.718;9.272;2023-12-20T10:16:09;7.43;;;1.30;;
44248;SDS011;29923;48.718;9.272;2023-12-20T10:18:34;6.60;;;1.50;;
44248;SDS011;29923;48.718;9.272;2023-12-20T10:21:03;9.80;;;2.05;;
44248;SDS011;29923;48.718;9.272;2023-12-20T10:23:29;5.60;;;1.05;;
44248;SDS011;29923;48.718;9.272;2023-12-20T10:25:56;5.90;;;1.30;;
44248;SDS011;29923;48.718;9.272;2023-12-20T10:28:23;10.52;;;2.80;;
44248;SDS011;29923;48.718;9.272;2023-12-20T10:30:52;6.95;;;2.15;;
44248;SDS011;29923;48.718;9.272;2023-12-20T10:33:24;7.65;;;1.30;;
44248;SDS011;29923;48.718;9.272;2023-12-20T10:35:51;4.35;;;1.38;;
44248;SDS011;29923;48.718;9.272;2023-12-20T10:38:17;6.43;;;2.08;;
44248;SDS011;29923;48.718;9.272;2023-12-20T10:40:42;5.40;;;1.30;;
44248;SDS011;29923;48.718;9.272;2023-12-20T10:43:10;5.70;;;1.60;;
44248;SDS011;29923;48.718;9.272;2023-12-20T10:45:36;11.98;;;1.65;;
44248;SDS011;29923;48.718;9.272;2023-12-20T10:48:01;6.28;;;1.60;;
44248;SDS011;29923;48.718;9.272;2023-12-20T10:50:27;4.30;;;1.10;;
44248;SDS011;29923;48.718;9.272;2023-12-20T10:52:54;3.05;;;1.38;;
44248;SDS011;29923;48.718;9.272;2023-12-20T10:55:21;6.65;;;1.30;;
44248;SDS011;29923;48.718;9.272;2023-12-20T10:57:47;4.15;;;1.42;;
44248;SDS011;29923;48.718;9.272;2023-12-20T11:00:16;4.55;;;1.08;;
44248;SDS011;29923;48.718;9.272;2023-12-20T11:02:43;8.13;;;1.88;;
44248;SDS011;29923;48.718;9.272;2023-12-20T11:11:04;16.23;;;6.40;;
44248;SDS011;29923;48.718;9.272;2023-12-20T11:13:36;9.93;;;1.20;;
44248;SDS011;29923;48.718;9.272;2023-12-20T11:16:04;7.28;;;1.52;;
44248;SDS011;29923;48.718;9.272;2023-12-20T11:18:30;6.80;;;2.22;;
44248;SDS011;29923;48.718;9.272;2023-12-20T11:21:00;7.32;;;1.63;;
44248;SDS011;29923;48.718;9.272;2023-12-20T11:23:27;7.97;;;1.63;;
44248;SDS011;29923;48.718;9.272;2023-12-20T11:25:53;6.97;;;1.58;;
44248;SDS011;29923;48.718;9.272;2023-12-20T11:28:23;4.38;;;1.40;;
44248;SDS011;29923;48.718;9.272;2023-12-20T11:30:53;9.23;;;1.75;;
44248;SDS011;29923;48.718;9.272;2023-12-20T11:33:23;8.10;;;1.70;;
44248;SDS011;29923;48.718;9.272;2023-12-20T11:35:50;9.57;;;2.20;;
44248;SDS011;29923;48.718;9.272;2023-12-20T11:38:16;6.22;;;1.10;;
44248;SDS011;29923;48.718;9.272;2023-12-20T11:40:41;6.95;;;1.33;;
44248;SDS011;29923;48.718;9.272;2023-12-20T11:43:08;4.65;;;1.25;;
44248;SDS011;29923;48.718;9.272;2023-12-20T11:45:33;7.28;;;1.52;;
44248;SDS011;29923;48.718;9.272;2023-12-20T11:48:00;2.60;;;1.05;;
44248;SDS011;29923;48.718;9.272;2023-12-20T11:50:29;5.10;;;1.40;;
44248;SDS011;29923;48.718;9.272;2023-12-20T11:52:55;6.78;;;1.55;;
44248;SDS011;29923;48.718;9.272;2023-12-20T11:55:21;4.50;;;1.00;;
44248;SDS011;29923;48.718;9.272;2023-12-20T11:57:47;5.82;;;0.80;;
44248;SDS011;29923;48.718;9.272;2023-12-20T12:00:13;7.38;;;1.23;;
44248;SDS011;29923;48.718;9.272;2023-12-20T12:02:39;6.97;;;1.33;;
44248;SDS011;29923;48.718;9.272;2023-12-20T12:05:05;8.35;;;1.75;;
44248;SDS011;29923;48.718;9.272;2023-12-20T12:07:31;11.82;;;1.77;;
44248;SDS011;29923;48.718;9.272;2023-12-20T12:09:56;6.30;;;1.10;;
44248;SDS011;29923;48.718;9.272;2023-12-20T12:12:22;7.00;;;1.23;;
44248;SDS011;29923;48.718;9.272;2023-12-20T12:14:48;3.22;;;1.40;;
44248;SDS011;29923;48.718;9.272;2023-12-20T12:17:14;7.63;;;1.88;;
44248;SDS011;29923;48.718;9.272;2023-12-20T12:19:40;5.43;;;1.00;;
44248;SDS011;29923;48.718;9.272;2023-12-20T12:22:06;5.03;;;1.30;;
44248;SDS011;29923;48.718;9.272;2023-12-20T12:24:42;9.02;;;1.75;;
44248;SDS011;29923;48.718;9.272;2023-12-20T12:27:09;5.55;;;1.15;;
44248;SDS011;29923;48.718;9.272;2023-12-20T12:29:34;6.53;;;1.25;;
44248;SDS011;29923;48.718;9.272;2023-12-20T12:32:00;6.65;;;1.60;;
44248;SDS011;29923;48.718;9.272;2023-12-20T12:34:29;3.50;;;1.38;;
44248;SDS011;29923;48.718;9.272;2023-12-20T12:36:55;9.00;;;2.42;;
44248;SDS011;29923;48.718;9.272;2023-12-20T12:39:21;6.10;;;1.48;;
44248;SDS011;29923;48.718;9.272;2023-12-20T12:41:49;4.05;;;1.27;;
44248;SDS011;29923;48.718;9.272;2023-12-20T12:44:14;10.85;;;1.75;;
44248;SDS011;29923;48.718;9.272;2023-12-20T12:46:39;6.82;;;1.95;;
44248;SDS011;29923;48.718;9.272;2023-12-20T12:49:05;10.43;;;4.63;;
44248;SDS011;29923;48.718;9.272;2023-12-20T12:51:30;10.38;;;2.42;;
44248;SDS011;29923;48.718;9.272;2023-12-20T12:53:56;7.10;;;1.58;;
44248;SDS011;29923;48.718;9.272;2023-12-20T12:56:22;6.28;;;1.30;;
44248;SDS011;29923;48.718;9.272;2023-12-20T12:58:48;3.75;;;1.17;;
44248;SDS011;29923;48.718;9.272;2023-12-20T13:01:13;10.02;;;1.40;;
44248;SDS011;29923;48.718;9.272;2023-12-20T13:03:39;7.55;;;1.45;;
44248;SDS011;29923;48.718;9.272;2023-12-20T13:06:04;6.35;;;1.48;;
44248;SDS011;29923;48.718;9.272;2023-12-20T13:08:31;6.22;;;1.38;;
44248;SDS011;29923;48.718;9.272;2023-12-20T13:10:56;12.43;;;5.00;;
44248;SDS011;29923;48.718;9.272;2023-12-20T13:13:25;8.48;;;2.63;;
44248;SDS011;29923;48.718;9.272;2023-12-20T13:15:50;6.20;;;1.48;;
44248;SDS011;29923;48.718;9.272;2023-12-20T13:18:19;7.78;;;1.40;;
44248;SDS011;29923;48.718;9.272;2023-12-20T13:20:45;5.20;;;1.20;;
44248;SDS011;29923;48.718;9.272;2023-12-20T13:23:10;5.40;;;1.45;;
44248;SDS011;29923;48.718;9.272;2023-12-20T13:25:36;5.07;;;1.55;;
44248;SDS011;29923;48.718;9.272;2023-12-20T13:28:01;5.43;;;1.25;;
44248;SDS011;29923;48.718;9.272;2023-12-20T13:30:28;3.10;;;1.30;;
44248;SDS011;29923;48.718;9.272;2023-12-20T13:32:54;10.07;;;1.67;;
44248;SDS011;29923;48.718;9.272;2023-12-20T13:35:19;11.73;;;1.35;;
44248;SDS011;29923;48.718;9.272;2023-12-20T13:37:45;3.58;;;0.93;;
44248;SDS011;29923;48.718;9.272;2023-12-20T13:40:11;4.60;;;0.93;;
44248;SDS011;29923;48.718;9.272;2023-12-20T13:42:37;7.10;;;1.45;;
44248;SDS011;29923;48.718;9.272;2023-12-20T13:45:03;5.05;;;1.15;;
44248;SDS011;29923;48.718;9.272;2023-12-20T13:47:29;8.82;;;1.65;;
44248;SDS011;29923;48.718;9.272;2023-12-20T13:49:55;4.07;;;0.95;;
44248;SDS011;29923;48.718;9.272;2023-12-20T13:52:21;8.48;;;1.42;;
44248;SDS011;29923;48.718;9.272;2023-12-20T13:54:46;7.40;;;1.35;;
44248;SDS011;29923;48.718;9.272;2023-12-20T13:57:12;7.90;;;1.55;;
44248;SDS011;29923;48.718;9.272;2023-12-20T13:59:37;17.25;;;7.22;;
44248;SDS011;29923;48.718;9.272;2023-12-20T14:02:03;4.20;;;1.00;;
44248;SDS011;29923;48.718;9.272;2023-12-20T14:04:28;7.45;;;1.48;;
44248;SDS011;29923;48.718;9.272;2023-12-20T14:06:54;4.63;;;1.23;;
44248;SDS011;29923;48.718;9.272;2023-12-20T14:09:19;5.68;;;1.05;;
44248;SDS011;29923;48.718;9.272;2023-12-20T14:11:45;4.80;;;0.98;;
44248;SDS011;29923;48.718;9.272;2023-12-20T14:14:11;7.68;;;1.20;;
44248;SDS011;29923;48.718;9.272;2023-12-20T14:16:36;5.97;;;1.20;;
44248;SDS011;29923;48.718;9.272;2023-12-20T14:19:02;9.00;;;1.23;;
44248;SDS011;29923;48.718;9.272;2023-12-20T14:21:28;4.95;;;1.20;;
44248;SDS011;29923;48.718;9.272;2023-12-20T14:23:54;6.65;;;1.63;;
44248;SDS011;29923;48.718;9.272;2023-12-20T14:26:19;8.00;;;1.50;;
44248;SDS011;29923;48.718;9.272;2023-12-20T14:28:44;4.72;;;1.20;;
44248;SDS011;29923;48.718;9.272;2023-12-20T14:31:10;5.22;;;1.35;;
44248;SDS011;29923;48.718;9.272;2023-12-20T14:33:35;5.45;;;1.65;;
44248;SDS011;29923;48.718;9.272;2023-12-20T14:36:02;7.65;;;2.03;;
44248;SDS011;29923;48.718;9.272;2023-12-20T14:38:30;11.50;;;1.95;;
44248;SDS011;29923;48.718;9.272;2023-12-20T14:40:55;5.72;;;1.20;;
44248;SDS011;29923;48.718;9.272;2023-12-20T14:43:21;3.13;;;1.13;;
44248;SDS011;29923;48.718;9.272;2023-12-20T14:45:47;1.15;;;1.00;;